Time;durP1;ratioP1;P1;durP2;ratioP2;P2;SDS_P1;SDS_P2;PMS_P1;PMS_P2;Temp;Humidity;BMP_temperature;BMP_pressure;BME280_temperature;BME280_humidity;BME280_pressure;Samples;Min_cycle;Max_cycle;Signal;HPM_P1;HPM_P2
2021/07/23 00:02:12;;;;;;;5.00;3.67;;;;;;;;;;4192274;34;20241;-68
2021/07/23 00:04:38;;;;;;;9.50;3.50;;;;;;;;;;4205268;34;20246;-69
2021/07/23 00:07:04;;;;;;;6.75;3.22;;;;;;;;;;4205007;34;20117;-69
2021/07/23 00:09:30;;;;;;;6.07;2.97;;;;;;;;;;4205076;34;20133;-68
2021/07/23 00:11:56;;;;;;;3.87;3.25;;;;;;;;;;4205195;34;20202;-67
2021/07/23 00:14:22;;;;;;;3.00;2.70;;;;;;;;;;4205066;34;20129;-69
2021/07/23 00:16:48;;;;;;;3.45;2.80;;;;;;;;;;4204736;34;20112;-67
2021/07/23 00:19:14;;;;;;;3.40;2.58;;;;;;;;;;4192183;34;20185;-68
2021/07/23 00:21:40;;;;;;;3.10;2.53;;;;;;;;;;4192313;34;20098;-69
2021/07/23 00:24:06;;;;;;;5.18;2.75;;;;;;;;;;4204803;34;20129;-67
2021/07/23 00:26:32;;;;;;;3.42;2.78;;;;;;;;;;4191838;34;20106;-67
2021/07/23 00:28:57;;;;;;;4.53;2.92;;;;;;;;;;4204885;34;20512;-69
2021/07/23 00:31:23;;;;;;;4.82;3.30;;;;;;;;;;4191850;34;20098;-68
2021/07/23 00:33:49;;;;;;;3.72;3.00;;;;;;;;;;4204879;34;20129;-68
2021/07/23 00:36:15;;;;;;;3.78;3.08;;;;;;;;;;4204471;34;20125;-69
2021/07/23 00:38:43;;;;;;;7.87;3.28;;;;;;;;;;4191928;34;20220;-67
2021/07/23 00:41:09;;;;;;;4.55;3.20;;;;;;;;;;4204127;34;20105;-69
2021/07/23 00:43:35;;;;;;;4.57;3.08;;;;;;;;;;4192103;34;20119;-66
2021/07/23 00:46:01;;;;;;;4.53;3.10;;;;;;;;;;4204730;34;20489;-69
2021/07/23 00:48:27;;;;;;;3.65;3.00;;;;;;;;;;4191900;34;20106;-69
2021/07/23 00:50:53;;;;;;;3.95;3.00;;;;;;;;;;4204830;34;20094;-67
2021/07/23 00:53:20;;;;;;;10.05;3.20;;;;;;;;;;4191746;34;20202;-67
2021/07/23 00:55:56;;;;;;;6.62;2.90;;;;;;;;;;4191868;34;20117;-69
2021/07/23 00:58:23;;;;;;;5.18;2.90;;;;;;;;;;4191875;34;20548;-68
2021/07/23 01:00:49;;;;;;;5.10;3.28;;;;;;;;;;4204364;34;20133;-69
2021/07/23 01:03:16;;;;;;;4.05;2.55;;;;;;;;;;4180334;34;20093;-67
2021/07/23 01:05:42;;;;;;;7.60;3.28;;;;;;;;;;4204730;34;20497;-66
2021/07/23 01:08:08;;;;;;;4.60;3.30;;;;;;;;;;4204514;34;20259;-68
2021/07/23 01:10:37;;;;;;;15.00;3.60;;;;;;;;;;4204368;34;20460;-69
2021/07/23 01:13:04;;;;;;;4.53;3.35;;;;;;;;;;4191714;34;20113;-66
2021/07/23 01:15:31;;;;;;;5.70;3.65;;;;;;;;;;4204567;34;20133;-69
2021/07/23 01:17:58;;;;;;;3.85;2.90;;;;;;;;;;4204479;34;20113;-69
2021/07/23 01:20:26;;;;;;;3.28;2.75;;;;;;;;;;4191931;34;20576;-66
2021/07/23 01:22:54;;;;;;;7.62;3.20;;;;;;;;;;4191868;34;20209;-68
2021/07/23 01:25:21;;;;;;;6.28;3.15;;;;;;;;;;4204298;34;20205;-67
2021/07/23 01:27:51;;;;;;;4.40;3.20;;;;;;;;;;4191317;34;20178;-69
2021/07/23 01:30:18;;;;;;;5.20;3.55;;;;;;;;;;4204384;34;20110;-68
2021/07/23 01:32:44;;;;;;;3.62;2.80;;;;;;;;;;4204012;34;20500;-69
2021/07/23 01:35:10;;;;;;;3.65;2.78;;;;;;;;;;4204115;34;20141;-69
2021/07/23 01:37:38;;;;;;;4.70;3.10;;;;;;;;;;4204765;34;20095;-70
2021/07/23 01:40:05;;;;;;;3.90;3.50;;;;;;;;;;4191532;34;20104;-67
2021/07/23 01:42:31;;;;;;;3.85;3.05;;;;;;;;;;4204298;34;20106;-68
2021/07/23 01:44:57;;;;;;;4.60;3.58;;;;;;;;;;4191383;34;20195;-68
2021/07/23 01:47:23;;;;;;;5.05;3.50;;;;;;;;;;4203971;34;20136;-68
2021/07/23 01:49:49;;;;;;;3.62;3.20;;;;;;;;;;4191314;34;20128;-68
2021/07/23 01:52:15;;;;;;;4.40;3.22;;;;;;;;;;4204644;34;20102;-68
2021/07/23 01:54:41;;;;;;;4.10;3.40;;;;;;;;;;4206274;34;20098;-67
2021/07/23 01:57:07;;;;;;;5.03;3.70;;;;;;;;;;4205873;34;20606;-69
2021/07/23 01:59:33;;;;;;;4.12;3.53;;;;;;;;;;4181903;34;20117;-70
2021/07/23 02:01:59;;;;;;;5.47;3.12;;;;;;;;;;4205895;34;20249;-67
2021/07/23 02:04:25;;;;;;;8.23;3.70;;;;;;;;;;4193265;34;20118;-68
2021/07/23 02:06:51;;;;;;;7.68;3.90;;;;;;;;;;4206154;34;20121;-69
2021/07/23 02:09:18;;;;;;;6.07;3.12;;;;;;;;;;4193126;34;20180;-66
2021/07/23 02:11:44;;;;;;;12.82;4.20;;;;;;;;;;4205973;34;20177;-67
2021/07/23 02:14:10;;;;;;;3.87;3.37;;;;;;;;;;4193073;34;20201;-67
2021/07/23 02:16:36;;;;;;;5.65;3.40;;;;;;;;;;4205899;34;20114;-67
2021/07/23 02:19:03;;;;;;;5.12;3.42;;;;;;;;;;4205999;34;20102;-69
2021/07/23 02:21:29;;;;;;;5.43;3.62;;;;;;;;;;4181788;34;20105;-69
2021/07/23 02:23:56;;;;;;;5.45;3.80;;;;;;;;;;4206380;34;20585;-69
2021/07/23 02:26:24;;;;;;;4.72;3.60;;;;;;;;;;4193228;34;20243;-68
2021/07/23 02:28:50;;;;;;;8.02;3.50;;;;;;;;;;4193092;34;20109;-68
2021/07/23 02:31:18;;;;;;;6.53;3.70;;;;;;;;;;4205394;34;20114;-68
2021/07/23 02:33:45;;;;;;;6.85;3.37;;;;;;;;;;4193032;34;20106;-69
2021/07/23 02:36:21;;;;;;;5.07;3.87;;;;;;;;;;4205412;34;20120;-68
2021/07/23 02:39:07;;;;;;;4.55;3.80;;;;;;;;;;4193456;34;20122;-71
2021/07/23 02:41:34;;;;;;;8.15;4.05;;;;;;;;;;4211229;34;20527;-66
2021/07/23 02:44:00;;;;;;;5.93;4.95;;;;;;;;;;4201431;34;20508;-67
2021/07/23 02:46:25;;;;;;;5.65;4.22;;;;;;;;;;4204656;34;20113;-68
2021/07/23 02:48:51;;;;;;;8.77;4.12;;;;;;;;;;4211434;34;20143;-69
2021/07/23 02:51:17;;;;;;;6.10;4.07;;;;;;;;;;4194575;34;20515;-70
2021/07/23 02:53:44;;;;;;;4.72;3.72;;;;;;;;;;4218758;34;20121;-69
2021/07/23 02:56:09;;;;;;;4.97;3.50;;;;;;;;;;4218689;33;20208;-67
2021/07/23 02:58:43;;;;;;;7.90;4.25;;;;;;;;;;4205768;33;20542;-68
2021/07/23 03:01:09;;;;;;;6.45;4.18;;;;;;;;;;4205701;34;20101;-69
2021/07/23 03:03:36;;;;;;;4.47;3.50;;;;;;;;;;4192035;34;20108;-68
2021/07/23 03:06:04;;;;;;;4.43;3.67;;;;;;;;;;4192490;34;20148;-69
2021/07/23 03:08:32;;;;;;;4.37;3.97;;;;;;;;;;4205720;34;20121;-67
2021/07/23 03:11:00;;;;;;;5.97;4.03;;;;;;;;;;4192751;34;20114;-67
2021/07/23 03:13:26;;;;;;;8.15;4.40;;;;;;;;;;4192657;34;20162;-68
2021/07/23 03:15:52;;;;;;;5.30;3.58;;;;;;;;;;4192789;34;20134;-68
2021/07/23 03:18:18;;;;;;;5.10;3.87;;;;;;;;;;4192548;34;20121;-69
2021/07/23 03:20:44;;;;;;;5.95;3.70;;;;;;;;;;4192492;34;20207;-67
2021/07/23 03:23:10;;;;;;;4.85;4.05;;;;;;;;;;4192740;34;20216;-66
2021/07/23 03:25:37;;;;;;;11.00;4.12;;;;;;;;;;4205567;34;20525;-68
2021/07/23 03:28:03;;;;;;;4.37;3.37;;;;;;;;;;4192754;34;20489;-69
2021/07/23 03:30:32;;;;;;;4.40;3.87;;;;;;;;;;4205438;34;20121;-66
2021/07/23 03:33:13;;;;;;;7.18;3.80;;;;;;;;;;4193033;34;20193;-67
2021/07/23 03:35:39;;;;;;;4.60;3.50;;;;;;;;;;4192225;34;20507;-65
2021/07/23 03:38:05;;;;;;;3.75;2.92;;;;;;;;;;4205139;34;20551;-65
2021/07/23 03:40:31;;;;;;;5.30;3.75;;;;;;;;;;4205249;34;20133;-64
2021/07/23 03:42:57;;;;;;;8.73;3.47;;;;;;;;;;4192207;34;20093;-65
2021/07/23 03:45:24;;;;;;;6.12;3.28;;;;;;;;;;4180831;34;20577;-66
2021/07/23 03:48:00;;;;;;;6.50;4.25;;;;;;;;;;4204914;34;20540;-66
2021/07/23 03:50:29;;;;;;;5.85;4.03;;;;;;;;;;4205242;34;20449;-67
2021/07/23 03:53:02;;;;;;;7.60;3.60;;;;;;;;;;4205047;34;20195;-64
2021/07/23 03:55:30;;;;;;;7.03;3.83;;;;;;;;;;4205150;34;20539;-67
2021/07/23 03:57:56;;;;;;;4.40;3.47;;;;;;;;;;4204887;34;20125;-65
2021/07/23 04:04:12;;;;;;;6.10;4.05;;;;;;;;;;4166055;34;20135;-66
2021/07/23 04:06:39;;;;;;;5.57;4.25;;;;;;;;;;4165939;34;20141;-67
2021/07/23 04:09:11;;;;;;;9.48;4.22;;;;;;;;;;4161494;34;20087;-69
2021/07/23 04:11:50;;;;;;;4.53;3.95;;;;;;;;;;4161521;34;20138;-69
2021/07/23 04:14:16;;;;;;;4.07;3.67;;;;;;;;;;4161435;34;20342;-68
2021/07/23 04:16:42;;;;;;;4.95;4.10;;;;;;;;;;4160645;34;20490;-68
2021/07/23 04:19:09;;;;;;;6.85;4.37;;;;;;;;;;4161430;34;20115;-65
2021/07/23 04:21:35;;;;;;;7.55;4.70;;;;;;;;;;4161304;34;20123;-67
2021/07/23 04:24:02;;;;;;;5.20;3.75;;;;;;;;;;4161469;34;20195;-67
2021/07/23 04:26:28;;;;;;;6.53;3.97;;;;;;;;;;4161148;34;20533;-67
2021/07/23 04:28:54;;;;;;;5.68;3.92;;;;;;;;;;4149933;34;20218;-67
2021/07/23 04:31:22;;;;;;;4.20;3.60;;;;;;;;;;4161048;34;20150;-66
2021/07/23 04:33:51;;;;;;;4.53;3.53;;;;;;;;;;4150327;34;20098;-69
2021/07/23 04:36:17;;;;;;;4.47;3.55;;;;;;;;;;4161004;34;20129;-69
2021/07/23 04:38:43;;;;;;;4.28;3.28;;;;;;;;;;4161148;34;20141;-68
2021/07/23 04:41:11;;;;;;;4.80;3.95;;;;;;;;;;4161118;34;20107;-64
2021/07/23 04:43:41;;;;;;;6.03;4.20;;;;;;;;;;4161337;34;20103;-67
2021/07/23 04:46:07;;;;;;;5.20;3.78;;;;;;;;;;4161184;34;20107;-67
2021/07/23 04:48:34;;;;;;;4.62;3.87;;;;;;;;;;4149807;34;20153;-68
2021/07/23 04:51:01;;;;;;;7.37;3.30;;;;;;;;;;4161386;34;20133;-71
2021/07/23 04:53:27;;;;;;;6.53;3.65;;;;;;;;;;4160994;34;20126;-66
2021/07/23 04:55:55;;;;;;;5.22;4.07;;;;;;;;;;4159266;34;20110;-70
2021/07/23 04:58:21;;;;;;;5.90;3.78;;;;;;;;;;4159164;34;20631;-70
2021/07/23 05:00:47;;;;;;;5.93;3.78;;;;;;;;;;4148523;34;20150;-70
2021/07/23 05:03:14;;;;;;;4.43;3.55;;;;;;;;;;4171524;34;20122;-67
2021/07/23 05:05:40;;;;;;;6.40;4.00;;;;;;;;;;4175309;34;20557;-71
2021/07/23 05:08:06;;;;;;;6.18;3.90;;;;;;;;;;4162117;34;20122;-67
2021/07/23 05:10:32;;;;;;;5.50;3.87;;;;;;;;;;4175854;34;20130;-70
2021/07/23 05:12:58;;;;;;;3.80;3.10;;;;;;;;;;4153031;34;20141;-65
2021/07/23 05:15:24;;;;;;;6.55;3.80;;;;;;;;;;4176728;34;20127;-68
2021/07/23 05:17:50;;;;;;;5.37;3.75;;;;;;;;;;4153153;34;20546;-70
2021/07/23 05:20:16;;;;;;;4.53;2.60;;;;;;;;;;4164350;34;20466;-71
2021/07/23 05:22:43;;;;;;;8.18;4.22;;;;;;;;;;4152615;34;20136;-67
2021/07/23 05:25:10;;;;;;;4.95;3.58;;;;;;;;;;4153101;34;20202;-71
2021/07/23 05:27:36;;;;;;;4.25;3.05;;;;;;;;;;4154550;34;20090;-71
2021/07/23 05:30:03;;;;;;;3.60;3.25;;;;;;;;;;4154894;34;20210;-65
2021/07/23 05:32:29;;;;;;;4.95;3.17;;;;;;;;;;4165991;34;20185;-69
2021/07/23 05:34:55;;;;;;;3.58;3.20;;;;;;;;;;4166408;34;20218;-71
2021/07/23 05:37:21;;;;;;;3.75;3.20;;;;;;;;;;4178641;34;20543;-71
2021/07/23 05:39:48;;;;;;;4.37;3.55;;;;;;;;;;4178676;34;20126;-65
2021/07/23 05:42:14;;;;;;;3.28;2.97;;;;;;;;;;4178609;34;20117;-70
2021/07/23 05:44:49;;;;;;;4.12;3.33;;;;;;;;;;4166149;34;20263;-70
2021/07/23 05:47:18;;;;;;;3.65;3.05;;;;;;;;;;4178752;34;20385;-64
2021/07/23 05:49:44;;;;;;;4.82;3.40;;;;;;;;;;4178728;34;20118;-70
2021/07/23 05:52:10;;;;;;;3.92;3.05;;;;;;;;;;4165713;34;20205;-70
2021/07/23 05:54:36;;;;;;;4.72;3.37;;;;;;;;;;4178733;34;20157;-67
2021/07/23 05:57:03;;;;;;;5.93;3.70;;;;;;;;;;4178247;34;20118;-69
2021/07/23 05:59:30;;;;;;;4.47;3.30;;;;;;;;;;4178662;34;20117;-67
2021/07/23 06:01:56;;;;;;;3.37;3.05;;;;;;;;;;4178308;34;20585;-69
2021/07/23 06:04:22;;;;;;;4.20;3.12;;;;;;;;;;4178438;34;20133;-70
2021/07/23 06:06:50;;;;;;;3.80;3.05;;;;;;;;;;4178412;34;20144;-72
2021/07/23 06:09:16;;;;;;;3.12;2.83;;;;;;;;;;4178344;34;20122;-68
2021/07/23 06:11:42;;;;;;;3.62;3.25;;;;;;;;;;4178560;34;20556;-72
2021/07/23 06:14:08;;;;;;;3.72;2.72;;;;;;;;;;4178473;34;20548;-71
2021/07/23 06:16:34;;;;;;;3.62;3.08;;;;;;;;;;4165640;34;20213;-69
2021/07/23 06:19:00;;;;;;;6.97;3.35;;;;;;;;;;4178416;34;20202;-69
2021/07/23 06:21:26;;;;;;;5.32;3.03;;;;;;;;;;4178313;34;20129;-70
2021/07/23 06:23:53;;;;;;;3.47;2.95;;;;;;;;;;4178546;34;20189;-67
2021/07/23 06:26:19;;;;;;;5.85;2.87;;;;;;;;;;4154014;34;20126;-68
2021/07/23 06:28:45;;;;;;;4.47;2.95;;;;;;;;;;4178269;34;20126;-70
2021/07/23 06:31:15;;;;;;;5.45;2.90;;;;;;;;;;4178284;34;20110;-70
2021/07/23 06:33:41;;;;;;;3.92;2.97;;;;;;;;;;4178177;34;20117;-72
2021/07/23 06:36:07;;;;;;;3.80;3.10;;;;;;;;;;4178241;34;20122;-72
2021/07/23 06:38:33;;;;;;;6.43;2.40;;;;;;;;;;4178042;34;20119;-70
2021/07/23 06:40:59;;;;;;;2.50;2.30;;;;;;;;;;4177113;34;20462;-66
2021/07/23 06:43:26;;;;;;;3.67;3.17;;;;;;;;;;4165367;34;20114;-71
2021/07/23 06:45:56;;;;;;;5.32;2.97;;;;;;;;;;4178018;34;20222;-67
2021/07/23 06:48:24;;;;;;;2.83;2.37;;;;;;;;;;4178195;34;20180;-72
2021/07/23 06:51:09;;;;;;;2.53;2.33;;;;;;;;;;4177945;34;20102;-69
2021/07/23 06:53:35;;;;;;;3.47;2.72;;;;;;;;;;4176942;34;20121;-71
2021/07/23 06:56:03;;;;;;;3.17;2.42;;;;;;;;;;4177796;34;20119;-64
2021/07/23 06:58:29;;;;;;;2.10;1.92;;;;;;;;;;4178352;34;20434;-71
2021/07/23 07:00:55;;;;;;;1.87;1.77;;;;;;;;;;4177905;34;20476;-65
2021/07/23 07:03:21;;;;;;;4.45;2.60;;;;;;;;;;4177875;34;20223;-69
2021/07/23 07:05:50;;;;;;;3.28;2.20;;;;;;;;;;4177901;34;20222;-64
2021/07/23 07:08:17;;;;;;;3.40;2.65;;;;;;;;;;4177939;34;20502;-64
2021/07/23 07:10:44;;;;;;;5.07;2.72;;;;;;;;;;4178057;34;20214;-70
2021/07/23 07:13:10;;;;;;;3.87;2.50;;;;;;;;;;4165261;34;20114;-69
2021/07/23 07:15:37;;;;;;;3.10;2.47;;;;;;;;;;4165548;34;20141;-67
2021/07/23 07:18:06;;;;;;;2.25;2.05;;;;;;;;;;4176680;34;20105;-67
2021/07/23 07:20:35;;;;;;;2.10;1.90;;;;;;;;;;4177866;34;20517;-71
2021/07/23 07:23:01;;;;;;;2.28;2.00;;;;;;;;;;4177663;34;20110;-67
2021/07/23 07:25:27;;;;;;;2.90;1.90;;;;;;;;;;4177741;34;20129;-65
2021/07/23 07:27:53;;;;;;;2.22;1.92;;;;;;;;;;4177846;34;20122;-64
2021/07/23 07:30:20;;;;;;;2.45;2.25;;;;;;;;;;4177817;34;20146;-69
2021/07/23 07:32:46;;;;;;;5.00;2.42;;;;;;;;;;4177793;34;20614;-69
2021/07/23 07:35:12;;;;;;;3.53;2.53;;;;;;;;;;4177952;34;20589;-69
2021/07/23 07:37:38;;;;;;;2.53;2.17;;;;;;;;;;4176241;34;20122;-67
2021/07/23 07:40:05;;;;;;;2.28;2.08;;;;;;;;;;4177903;34;20137;-70
2021/07/23 07:42:31;;;;;;;3.05;2.55;;;;;;;;;;4164998;34;20552;-69
2021/07/23 07:45:00;;;;;;;4.70;2.50;;;;;;;;;;4165289;34;20126;-67
2021/07/23 07:47:26;;;;;;;2.60;2.30;;;;;;;;;;4165200;34;20498;-67
2021/07/23 07:49:52;;;;;;;2.30;2.10;;;;;;;;;;4176624;34;20540;-70
2021/07/23 07:52:19;;;;;;;3.47;2.78;;;;;;;;;;4177440;34;20193;-71
2021/07/23 07:54:48;;;;;;;2.30;2.10;;;;;;;;;;4177595;34;20125;-70
2021/07/23 07:57:14;;;;;;;2.50;2.30;;;;;;;;;;4177302;34;20219;-67
2021/07/23 07:59:40;;;;;;;2.67;2.00;;;;;;;;;;4164968;34;20525;-66
2021/07/23 08:02:10;;;;;;;2.53;2.33;;;;;;;;;;4164479;34;20130;-66
2021/07/23 08:04:37;;;;;;;3.22;2.70;;;;;;;;;;4177496;34;20121;-70
2021/07/23 08:07:08;;;;;;;1.85;1.73;;;;;;;;;;4177499;34;20119;-69
2021/07/23 08:09:48;;;;;;;2.42;2.20;;;;;;;;;;4165097;34;20118;-70
2021/07/23 08:12:14;;;;;;;3.28;2.00;;;;;;;;;;4164851;34;20138;-71
2021/07/23 08:14:40;;;;;;;2.87;2.30;;;;;;;;;;4177460;34;20529;-70
2021/07/23 08:17:06;;;;;;;2.55;2.25;;;;;;;;;;4177130;34;20450;-70
2021/07/23 08:19:32;;;;;;;5.40;1.75;;;;;;;;;;4164678;34;20205;-70
2021/07/23 08:21:58;;;;;;;2.58;2.37;;;;;;;;;;4177469;34;20454;-71
2021/07/23 08:24:24;;;;;;;2.55;2.33;;;;;;;;;;4176340;34;20133;-70
2021/07/23 08:26:50;;;;;;;3.40;2.28;;;;;;;;;;4177095;34;20141;-69
2021/07/23 08:29:16;;;;;;;3.92;2.60;;;;;;;;;;4177310;34;20206;-70
2021/07/23 08:31:42;;;;;;;2.58;2.15;;;;;;;;;;4177127;34;20118;-71
2021/07/23 08:34:08;;;;;;;2.00;1.87;;;;;;;;;;4164770;34;20121;-66
2021/07/23 08:36:34;;;;;;;2.35;2.15;;;;;;;;;;4164324;34;20110;-69
2021/07/23 08:39:00;;;;;;;2.85;2.40;;;;;;;;;;4164692;34;20130;-66
2021/07/23 08:41:26;;;;;;;3.12;2.28;;;;;;;;;;4177359;34;20113;-69
2021/07/23 08:43:53;;;;;;;2.47;1.60;;;;;;;;;;4164535;34;20118;-66
2021/07/23 08:46:19;;;;;;;4.93;2.50;;;;;;;;;;4164412;34;20102;-68
2021/07/23 08:48:45;;;;;;;2.37;2.00;;;;;;;;;;4164607;34;20109;-69
2021/07/23 08:51:17;;;;;;;1.35;1.30;;;;;;;;;;4153160;34;20213;-69
2021/07/23 08:53:43;;;;;;;2.92;2.22;;;;;;;;;;4164877;34;20132;-70
2021/07/23 08:56:09;;;;;;;1.70;1.60;;;;;;;;;;4164230;34;20150;-69
2021/07/23 08:58:36;;;;;;;4.05;2.10;;;;;;;;;;4177139;34;20105;-68
2021/07/23 09:01:02;;;;;;;2.90;2.20;;;;;;;;;;4176386;34;20095;-66
2021/07/23 09:03:32;;;;;;;4.72;2.45;;;;;;;;;;4176882;34;20533;-70
2021/07/23 09:05:58;;;;;;;4.70;2.10;;;;;;;;;;4176979;34;20539;-71
2021/07/23 09:08:24;;;;;;;3.47;2.30;;;;;;;;;;4176753;34;20110;-68
2021/07/23 09:11:03;;;;;;;3.17;2.17;;;;;;;;;;4176689;34;20211;-69
2021/07/23 09:13:29;;;;;;;1.62;1.52;;;;;;;;;;4164118;34;20211;-68
2021/07/23 09:15:57;;;;;;;3.78;2.20;;;;;;;;;;4176625;34;20115;-71
2021/07/23 09:18:31;;;;;;;3.25;2.45;;;;;;;;;;4164472;34;20205;-66
2021/07/23 09:21:04;;;;;;;4.35;3.42;;;;;;;;;;4176730;34;20472;-71
2021/07/23 09:23:37;;;;;;;2.35;1.90;;;;;;;;;;4164490;34;20193;-68
2021/07/23 09:26:16;;;;;;;2.92;2.20;;;;;;;;;;4176596;34;20174;-71
2021/07/23 09:28:45;;;;;;;2.12;1.92;;;;;;;;;;4164249;34;20621;-68
2021/07/23 09:31:20;;;;;;;5.30;2.33;;;;;;;;;;4176866;34;20112;-71
2021/07/23 09:33:48;;;;;;;6.30;2.58;;;;;;;;;;4176515;34;20466;-69
2021/07/23 09:36:14;;;;;;;3.92;2.35;;;;;;;;;;4174948;34;20596;-67
2021/07/23 09:38:44;;;;;;;3.00;1.83;;;;;;;;;;4176464;34;20256;-69
2021/07/23 09:41:30;;;;;;;3.00;2.22;;;;;;;;;;4176320;34;20150;-71
2021/07/23 09:44:01;;;;;;;2.37;2.17;;;;;;;;;;4176642;34;20129;-70
2021/07/23 09:46:33;;;;;;;3.72;2.28;;;;;;;;;;4176270;34;20138;-71
2021/07/23 09:49:02;;;;;;;3.45;2.40;;;;;;;;;;4152896;34;20466;-69
2021/07/23 09:51:28;;;;;;;3.97;2.30;;;;;;;;;;4176336;34;20550;-67
2021/07/23 09:53:55;;;;;;;4.35;2.70;;;;;;;;;;4163787;34;20506;-69
2021/07/23 09:56:22;;;;;;;4.32;1.62;;;;;;;;;;4176343;34;20123;-67
2021/07/23 09:58:52;;;;;;;4.40;2.30;;;;;;;;;;4176375;34;20128;-70
2021/07/23 10:01:20;;;;;;;4.03;2.10;;;;;;;;;;4176227;34;20107;-69
2021/07/23 10:03:48;;;;;;;2.92;2.60;;;;;;;;;;4176336;34;20118;-69
2021/07/23 10:06:26;;;;;;;5.18;2.20;;;;;;;;;;4163692;34;20134;-69
2021/07/23 10:08:55;;;;;;;2.78;2.33;;;;;;;;;;4163823;34;20144;-65
2021/07/23 10:11:21;;;;;;;2.33;2.10;;;;;;;;;;4163853;34;20104;-65
2021/07/23 10:13:48;;;;;;;2.00;1.80;;;;;;;;;;4153086;34;20189;-69
2021/07/23 10:16:14;;;;;;;3.83;2.30;;;;;;;;;;4178316;34;20618;-70
2021/07/23 10:18:40;;;;;;;2.95;2.20;;;;;;;;;;4165686;34;20240;-67
2021/07/23 10:21:06;;;;;;;3.30;2.53;;;;;;;;;;4165739;34;20141;-69
2021/07/23 10:23:32;;;;;;;6.95;3.00;;;;;;;;;;4165983;34;20146;-69
2021/07/23 10:25:59;;;;;;;2.05;1.90;;;;;;;;;;4165863;34;20499;-71
2021/07/23 10:28:40;;;;;;;3.42;2.12;;;;;;;;;;4154576;34;20536;-68
2021/07/23 10:31:21;;;;;;;3.00;2.00;;;;;;;;;;4178233;34;20106;-65
2021/07/23 10:33:58;;;;;;;2.87;2.47;;;;;;;;;;4178342;34;20265;-69
2021/07/23 10:36:26;;;;;;;2.55;2.03;;;;;;;;;;4178123;34;20106;-67
2021/07/23 10:39:04;;;;;;;2.12;1.67;;;;;;;;;;4178221;34;20133;-67
2021/07/23 10:41:31;;;;;;;4.85;2.30;;;;;;;;;;4177864;34;20126;-67
2021/07/23 10:43:57;;;;;;;3.85;2.17;;;;;;;;;;4176682;34;20134;-65
2021/07/23 10:46:46;;;;;;;8.80;2.65;;;;;;;;;;4165648;34;20522;-69
2021/07/23 10:49:27;;;;;;;1.60;1.45;;;;;;;;;;4172477;34;20549;-65
2021/07/23 10:52:26;;;;;;;2.75;2.50;;;;;;;;;;4177880;34;20106;-67
2021/07/23 10:55:11;;;;;;;2.28;2.00;;;;;;;;;;4178101;34;20130;-68
2021/07/23 10:57:37;;;;;;;2.75;2.40;;;;;;;;;;4177898;34;20463;-69
2021/07/23 11:00:04;;;;;;;2.65;2.33;;;;;;;;;;4178229;34;20126;-67
2021/07/23 11:02:30;;;;;;;2.20;1.98;;;;;;;;;;4177885;34;20530;-66
2021/07/23 11:05:10;;;;;;;2.00;1.80;;;;;;;;;;4177960;34;20225;-69
2021/07/23 11:07:36;;;;;;;2.72;1.90;;;;;;;;;;4177825;34;20126;-66
2021/07/23 11:10:03;;;;;;;3.40;2.30;;;;;;;;;;4178146;34;20111;-69
2021/07/23 11:12:33;;;;;;;2.72;2.25;;;;;;;;;;4165216;34;20187;-66
2021/07/23 11:15:03;;;;;;;5.18;2.33;;;;;;;;;;4154679;34;20091;-71
2021/07/23 11:17:30;;;;;;;2.75;2.42;;;;;;;;;;4177746;34;20549;-68
2021/07/23 11:19:58;;;;;;;3.50;2.10;;;;;;;;;;4165276;34;20509;-71
2021/07/23 11:22:26;;;;;;;2.00;1.85;;;;;;;;;;4165529;34;20133;-68
2021/07/23 11:25:07;;;;;;;2.42;2.22;;;;;;;;;;4177871;34;20125;-68
2021/07/23 11:27:37;;;;;;;2.17;1.77;;;;;;;;;;4177998;34;20130;-71
2021/07/23 11:30:36;;;;;;;2.47;2.20;;;;;;;;;;4177795;34;20119;-68
2021/07/23 11:33:04;;;;;;;2.30;2.10;;;;;;;;;;4154319;34;20122;-68
2021/07/23 11:35:31;;;;;;;2.40;2.17;;;;;;;;;;4177674;34;20105;-69
2021/07/23 11:37:58;;;;;;;3.65;2.62;;;;;;;;;;4178040;34;20586;-69
2021/07/23 11:40:24;;;;;;;2.30;2.10;;;;;;;;;;4177737;34;20115;-70
2021/07/23 11:42:51;;;;;;;3.05;2.22;;;;;;;;;;4165103;34;20129;-70
2021/07/23 11:45:18;;;;;;;2.55;2.03;;;;;;;;;;4177722;34;20509;-69
2021/07/23 11:47:46;;;;;;;2.55;2.33;;;;;;;;;;4164976;34;20121;-72
2021/07/23 11:50:16;;;;;;;5.70;2.08;;;;;;;;;;4165330;34;20204;-71
2021/07/23 11:52:42;;;;;;;7.70;2.37;;;;;;;;;;4177588;34;20120;-67
2021/07/23 11:55:10;;;;;;;1.95;1.70;;;;;;;;;;4177636;34;20136;-67
2021/07/23 11:57:40;;;;;;;2.83;2.25;;;;;;;;;;4177611;34;20115;-69
2021/07/23 12:00:27;;;;;;;1.48;1.37;;;;;;;;;;4177777;34;20210;-68
2021/07/23 12:02:54;;;;;;;3.50;2.65;;;;;;;;;;4177465;34;20227;-70
2021/07/23 12:05:20;;;;;;;2.30;1.95;;;;;;;;;;4164923;34;20102;-70
2021/07/23 12:07:59;;;;;;;4.05;2.40;;;;;;;;;;4164646;34;20507;-68
2021/07/23 12:10:25;;;;;;;2.95;2.03;;;;;;;;;;4165210;34;20167;-71
2021/07/23 12:12:51;;;;;;;3.20;2.40;;;;;;;;;;4164801;34;20090;-68
2021/07/23 12:15:18;;;;;;;2.97;2.58;;;;;;;;;;4176106;34;20129;-68
2021/07/23 12:17:45;;;;;;;2.67;2.20;;;;;;;;;;4164636;34;20134;-71
2021/07/23 12:20:11;;;;;;;2.97;1.98;;;;;;;;;;4164723;34;20107;-68
2021/07/23 12:22:37;;;;;;;2.87;2.50;;;;;;;;;;4177583;34;20101;-64
2021/07/23 12:25:16;;;;;;;5.18;2.50;;;;;;;;;;4164811;34;20126;-68
2021/07/23 12:27:42;;;;;;;6.10;1.90;;;;;;;;;;4164609;34;20118;-69
2021/07/23 12:30:09;;;;;;;3.22;2.42;;;;;;;;;;4164661;34;20489;-70
2021/07/23 12:32:35;;;;;;;2.78;2.30;;;;;;;;;;4164762;34;20141;-70
2021/07/23 12:35:01;;;;;;;3.75;2.08;;;;;;;;;;4164567;34;20125;-67
2021/07/23 12:37:28;;;;;;;3.70;2.17;;;;;;;;;;4176388;34;20259;-69
2021/07/23 12:39:59;;;;;;;3.80;2.30;;;;;;;;;;4177114;34;20099;-71
2021/07/23 12:42:26;;;;;;;2.47;1.90;;;;;;;;;;4176995;34;20201;-70
2021/07/23 12:44:52;;;;;;;3.67;2.40;;;;;;;;;;4177069;34;20130;-67
2021/07/23 12:47:21;;;;;;;3.15;2.25;;;;;;;;;;4177244;34;20133;-70
2021/07/23 12:49:48;;;;;;;2.50;2.20;;;;;;;;;;4177103;34;20438;-66
2021/07/23 12:52:14;;;;;;;4.25;2.00;;;;;;;;;;4164539;34;20156;-66
2021/07/23 12:54:41;;;;;;;3.65;2.28;;;;;;;;;;4164329;34;20220;-69
2021/07/23 12:57:20;;;;;;;1.62;1.52;;;;;;;;;;4164267;34;20178;-69
2021/07/23 12:59:50;;;;;;;2.60;2.30;;;;;;;;;;4177089;34;20211;-70
2021/07/23 13:02:17;;;;;;;4.03;2.50;;;;;;;;;;4176989;34;20122;-66
2021/07/23 13:04:43;;;;;;;4.47;2.62;;;;;;;;;;4153230;34;20122;-65
2021/07/23 13:07:17;;;;;;;4.12;2.22;;;;;;;;;;4177150;34;20506;-69
2021/07/23 13:09:44;;;;;;;6.00;2.33;;;;;;;;;;4164238;34;20529;-68
2021/07/23 13:12:11;;;;;;;2.90;2.08;;;;;;;;;;4176797;34;20122;-65
2021/07/23 13:14:37;;;;;;;3.03;2.28;;;;;;;;;;4152875;34;20214;-67
2021/07/23 13:17:04;;;;;;;3.28;2.10;;;;;;;;;;4163514;34;20219;-72
2021/07/23 13:19:30;;;;;;;2.47;2.05;;;;;;;;;;4176755;34;20111;-65
2021/07/23 13:21:58;;;;;;;2.45;2.10;;;;;;;;;;4163857;34;20114;-65
2021/07/23 13:24:24;;;;;;;2.40;1.95;;;;;;;;;;4164402;34;20125;-67
2021/07/23 13:26:52;;;;;;;5.75;2.30;;;;;;;;;;4176407;34;20118;-66
2021/07/23 13:29:22;;;;;;;5.35;2.20;;;;;;;;;;4153449;34;20209;-65
2021/07/23 13:31:51;;;;;;;3.55;2.20;;;;;;;;;;4175238;34;20107;-66
2021/07/23 13:34:21;;;;;;;3.47;2.30;;;;;;;;;;4175543;34;20173;-65
2021/07/23 13:36:49;;;;;;;5.03;2.30;;;;;;;;;;4163848;34;20481;-69
2021/07/23 13:39:45;;;;;;;3.47;2.30;;;;;;;;;;4164029;34;20538;-68
2021/07/23 13:42:14;;;;;;;2.15;1.70;;;;;;;;;;4175267;34;20110;-65
2021/07/23 13:44:40;;;;;;;2.92;1.80;;;;;;;;;;4164140;34;20213;-67
2021/07/23 13:47:06;;;;;;;2.47;1.58;;;;;;;;;;4163935;34;20106;-64
2021/07/23 13:49:32;;;;;;;2.15;1.90;;;;;;;;;;4178788;34;20107;-68
2021/07/23 13:51:58;;;;;;;2.45;1.90;;;;;;;;;;4178712;34;20502;-67
2021/07/23 13:54:24;;;;;;;2.78;2.00;;;;;;;;;;4178665;34;20137;-68
2021/07/23 13:56:50;;;;;;;5.30;2.03;;;;;;;;;;4178264;34;20134;-71
2021/07/23 13:59:16;;;;;;;3.22;1.83;;;;;;;;;;4165731;34;20130;-67
2021/07/23 14:01:42;;;;;;;4.32;2.35;;;;;;;;;;4178388;34;20115;-67
2021/07/23 14:04:08;;;;;;;4.72;3.22;;;;;;;;;;4178325;34;20226;-68
2021/07/23 14:06:34;;;;;;;3.17;1.87;;;;;;;;;;4178400;34;20117;-66
2021/07/23 14:09:01;;;;;;;3.83;2.83;;;;;;;;;;4178452;34;20133;-70
2021/07/23 14:11:27;;;;;;;3.15;2.12;;;;;;;;;;4178289;34;20469;-65
2021/07/23 14:13:53;;;;;;;3.28;2.25;;;;;;;;;;4178344;34;20133;-70
2021/07/23 14:16:20;;;;;;;2.40;2.05;;;;;;;;;;4178340;34;20521;-70
2021/07/23 14:18:46;;;;;;;2.62;2.22;;;;;;;;;;4165767;34;20121;-72
2021/07/23 14:21:13;;;;;;;1.92;1.77;;;;;;;;;;4178243;34;20187;-68
2021/07/23 14:23:40;;;;;;;3.22;2.10;;;;;;;;;;4178327;34;20114;-69
2021/07/23 14:26:06;;;;;;;2.50;2.30;;;;;;;;;;4178232;34;20129;-65
2021/07/23 14:28:33;;;;;;;3.17;2.17;;;;;;;;;;4165642;34;20122;-71
2021/07/23 14:31:17;;;;;;;3.05;2.35;;;;;;;;;;4178152;34;20280;-65
2021/07/23 14:34:08;;;;;;;4.10;3.05;;;;;;;;;;4156106;34;20141;-70
2021/07/23 14:36:35;;;;;;;4.97;2.58;;;;;;;;;;4164359;34;20121;-70
2021/07/23 14:39:01;;;;;;;2.30;1.90;;;;;;;;;;4152078;34;20288;-71
2021/07/23 14:41:27;;;;;;;2.60;1.83;;;;;;;;;;4152032;34;20474;-66
2021/07/23 14:43:53;;;;;;;6.45;2.45;;;;;;;;;;4140830;34;20606;-66
2021/07/23 14:46:20;;;;;;;4.93;2.30;;;;;;;;;;4164316;34;20222;-66
2021/07/23 14:48:46;;;;;;;4.72;2.33;;;;;;;;;;4151984;34;20190;-67
2021/07/23 14:51:12;;;;;;;4.43;2.00;;;;;;;;;;4164336;34;20127;-67
2021/07/23 14:53:38;;;;;;;3.78;2.10;;;;;;;;;;4151926;34;20102;-65